Time;durP1;ratioP1;P1;durP2;ratioP2;P2;SDS_P1;SDS_P2;PMS_P1;PMS_P2;Temp;Humidity;BMP_temperature;BMP_pressure;BME280_temperature;BME280_humidity;BME280_pressure;Samples;Min_cycle;Max_cycle;Signal;HPM_P1;HPM_P2
2022/06/16 00:00:54;;;;;;;7.00;4.00;;;;;;;14.90;70.41;101886.84;5032049;28;20043;-65
2022/06/16 00:03:20;;;;;;;7.72;4.95;;;;;;;14.83;71.00;101890.88;5029325;28;20045;-65
2022/06/16 00:05:46;;;;;;;7.90;5.25;;;;;;;14.70;72.15;101885.44;5028848;28;20037;-65
2022/06/16 00:08:16;;;;;;;6.70;4.55;;;;;;;14.73;71.19;101886.09;5028354;28;20756;-65
2022/06/16 00:13:39;;;;;;;11.60;5.45;;;;;;;14.72;71.33;101889.75;5041157;28;20115;-65
2022/06/16 00:16:06;;;;;;;5.38;4.22;;;;;;;14.62;71.63;101899.34;5034138;28;20080;-65
2022/06/16 00:18:31;;;;;;;11.48;5.15;;;;;;;14.65;71.45;101898.28;5052187;28;20048;-65
2022/06/16 00:20:57;;;;;;;10.63;5.78;;;;;;;14.62;72.56;101899.34;5051439;28;20025;-65
2022/06/16 00:23:23;;;;;;;12.10;5.35;;;;;;;14.56;72.55;101906.91;5051208;28;20040;-65
2022/06/16 00:25:48;;;;;;;6.60;5.20;;;;;;;14.47;72.98;101897.59;5034171;28;20037;-65
2022/06/16 00:28:14;;;;;;;5.95;5.10;;;;;;;14.59;72.27;101898.69;5032058;28;20431;-64
2022/06/16 00:30:39;;;;;;;9.48;5.18;;;;;;;14.56;72.32;101897.06;5033478;28;20049;-65
2022/06/16 00:33:06;;;;;;;12.00;10.82;;;;;;;14.43;72.65;101888.88;5028145;28;20048;-65
2022/06/16 00:35:31;;;;;;;8.88;5.28;;;;;;;14.32;74.09;101891.38;5033321;28;20060;-63
2022/06/16 00:37:57;;;;;;;12.20;10.13;;;;;;;14.32;74.04;101895.88;5040547;28;20828;-65
2022/06/16 00:40:22;;;;;;;7.28;4.95;;;;;;;14.34;73.94;101893.97;5035482;28;20119;-65
2022/06/16 00:42:48;;;;;;;11.15;5.38;;;;;;;14.38;73.37;101884.75;5036381;28;20051;-65
2022/06/16 00:45:47;;;;;;;12.25;5.63;;;;;;;14.34;73.29;101893.97;5033182;28;20048;-65
2022/06/16 00:48:30;;;;;;;9.25;4.57;;;;;;;14.34;73.64;101893.97;5033769;28;20098;-66
2022/06/16 00:51:08;;;;;;;11.13;5.10;;;;;;;14.18;74.80;101894.06;5015938;28;20037;-64
2022/06/16 00:53:35;;;;;;;8.25;5.10;;;;;;;14.21;74.12;101901.91;5032525;28;20122;-64
2022/06/16 00:56:01;;;;;;;13.80;5.32;;;;;;;14.02;75.43;101910.22;5034465;28;20780;-65
2022/06/16 00:58:28;;;;;;;10.18;5.90;;;;;;;14.07;75.12;101907.25;5039300;28;20040;-64
2022/06/16 01:00:54;;;;;;;10.27;5.53;;;;;;;14.10;74.57;101905.22;5021321;28;20628;-65
2022/06/16 01:06:25;;;;;;;7.75;5.72;;;;;;;13.98;75.20;101900.63;5032604;28;20041;-65
2022/06/16 01:09:00;;;;;;;9.63;5.60;;;;;;;13.84;75.89;101906.81;5032629;28;20076;-65
2022/06/16 01:15:00;;;;;;;11.38;5.95;;;;;;;13.82;75.50;101899.84;5031583;28;20033;-65
2022/06/16 01:17:45;;;;;;;9.57;5.82;;;;;;;13.84;75.71;101904.13;5046106;28;20058;-65
2022/06/16 01:20:30;;;;;;;10.77;6.47;;;;;;;13.78;76.05;101903.66;5045412;28;20049;-65
2022/06/16 01:23:14;;;;;;;10.90;6.60;;;;;;;13.63;76.52;101911.66;5051581;28;20295;-64
2022/06/16 01:25:52;;;;;;;12.85;6.20;;;;;;;13.57;76.71;101909.34;5030666;28;20053;-65
2022/06/16 01:28:30;;;;;;;10.68;6.35;;;;;;;13.60;76.78;101913.63;5028780;28;20045;-65
2022/06/16 01:31:20;;;;;;;14.35;6.88;;;;;;;13.64;76.12;101912.50;5045495;28;20040;-64
2022/06/16 01:34:10;;;;;;;9.80;6.32;;;;;;;13.41;77.88;101924.59;5032089;28;20036;-65
2022/06/16 01:36:47;;;;;;;11.77;6.33;;;;;;;13.38;77.80;101914.91;5031415;28;20043;-65
2022/06/16 01:39:53;;;;;;;15.93;6.40;;;;;;;13.54;76.71;101914.84;5052465;28;20036;-65
2022/06/16 01:42:31;;;;;;;10.35;6.47;;;;;;;13.50;77.41;101915.13;5050904;28;20044;-64
2022/06/16 01:45:13;;;;;;;7.65;6.18;;;;;;;13.40;77.51;101922.84;5029883;28;20786;-65
2022/06/16 01:47:42;;;;;;;10.13;6.55;;;;;;;13.41;77.50;101929.94;5051027;28;20028;-65
2022/06/16 01:50:13;;;;;;;14.88;7.38;;;;;;;13.26;78.10;101931.69;5030406;28;20044;-64
2022/06/16 01:52:49;;;;;;;13.35;7.00;;;;;;;13.19;78.18;101925.75;5033559;28;20113;-65
2022/06/16 01:55:21;;;;;;;10.93;6.55;;;;;;;13.08;78.08;101935.38;5032606;28;20071;-65
2022/06/16 01:57:55;;;;;;;10.18;6.30;;;;;;;12.93;78.76;101939.75;5052601;28;20263;-64
2022/06/16 02:00:25;;;;;;;15.63;6.72;;;;;;;12.91;78.60;101936.31;5032506;28;20098;-65
2022/06/16 02:03:04;;;;;;;9.07;6.45;;;;;;;12.79;79.36;101936.97;5028902;28;20037;-65
2022/06/16 02:05:43;;;;;;;12.02;7.15;;;;;;;12.78;79.24;101929.91;5011473;28;20040;-65
2022/06/16 02:08:15;;;;;;;11.80;7.25;;;;;;;12.85;79.29;101936.63;5043410;28;20090;-65
2022/06/16 02:10:49;;;;;;;9.38;6.30;;;;;;;12.80;79.32;101946.72;5023574;28;20041;-65
2022/06/16 02:13:21;;;;;;;13.82;7.63;;;;;;;12.73;79.81;101938.19;5016037;28;20226;-64
2022/06/16 02:16:10;;;;;;;10.27;6.30;;;;;;;12.64;79.96;101936.88;5030862;28;20141;-65
2022/06/16 02:18:41;;;;;;;10.77;6.65;;;;;;;12.69;79.88;101925.91;5020060;28;20035;-65
2022/06/16 02:21:22;;;;;;;14.48;6.70;;;;;;;12.66;79.60;101931.47;5050459;28;20837;-64
2022/06/16 02:23:48;;;;;;;12.53;6.00;;;;;;;12.61;79.78;101926.34;5052415;28;20054;-65
2022/06/16 02:26:15;;;;;;;16.17;7.43;;;;;;;12.76;79.28;101924.66;5030116;28;20516;-65
2022/06/16 02:28:47;;;;;;;15.52;7.30;;;;;;;12.63;79.80;101923.59;5051494;28;20036;-65
2022/06/16 02:31:28;;;;;;;14.57;6.20;;;;;;;12.62;79.80;101933.44;5050927;28;20036;-64
2022/06/16 02:34:13;;;;;;;14.27;7.20;;;;;;;12.56;80.55;101936.44;5032547;28;20029;-64
2022/06/16 02:37:08;;;;;;;12.10;6.60;;;;;;;12.50;80.73;101939.47;5051138;28;20063;-65
2022/06/16 02:40:11;;;;;;;8.90;6.25;;;;;;;12.46;80.72;101937.88;5050788;28;20084;-65
2022/06/16 02:43:10;;;;;;;11.55;6.88;;;;;;;12.48;80.75;101946.69;5038622;28;20033;-65
2022/06/16 02:46:01;;;;;;;11.95;8.07;;;;;;;12.46;80.41;101950.41;5036302;28;20327;-64
2022/06/16 02:48:48;;;;;;;11.02;6.57;;;;;;;12.23;80.89;101947.13;5013961;28;20360;-65
2022/06/16 02:51:23;;;;;;;19.10;7.43;;;;;;;12.31;80.28;101946.72;5028982;28;20089;-64
2022/06/16 02:54:08;;;;;;;11.40;6.18;;;;;;;12.23;80.90;101959.63;5046371;28;20277;-64
2022/06/16 02:57:13;;;;;;;13.05;7.57;;;;;;;12.28;80.68;101957.56;5049492;28;20029;-65
2022/06/16 02:59:45;;;;;;;9.70;6.22;;;;;;;12.27;80.91;101956.72;5036474;28;20052;-65
2022/06/16 03:02:22;;;;;;;9.60;6.72;;;;;;;12.17;81.31;101966.16;5028721;28;20044;-65
2022/06/16 03:04:52;;;;;;;11.70;6.82;;;;;;;12.10;81.86;101976.31;5025649;28;20798;-64
2022/06/16 03:07:20;;;;;;;11.50;6.50;;;;;;;11.93;82.02;101976.31;5029610;28;20037;-65
2022/06/16 03:09:51;;;;;;;11.82;7.15;;;;;;;12.07;81.94;101978.28;5030130;28;20143;-65
2022/06/16 03:12:18;;;;;;;10.77;6.60;;;;;;;12.02;82.08;101989.22;5022571;28;20102;-65
2022/06/16 03:14:44;;;;;;;12.30;7.63;;;;;;;12.04;81.95;101989.97;5030248;28;20510;-65
2022/06/16 03:17:12;;;;;;;15.30;7.28;;;;;;;12.04;81.87;101986.44;5041633;28;20174;-65
2022/06/16 03:19:39;;;;;;;12.05;7.22;;;;;;;12.06;82.30;101989.94;5049798;28;20036;-65
2022/06/16 03:22:06;;;;;;;13.93;8.40;;;;;;;12.04;82.32;101989.97;5030149;28;20051;-64
2022/06/16 03:24:31;;;;;;;12.55;8.23;;;;;;;12.05;82.28;101978.38;5025718;28;20453;-64
2022/06/16 03:26:57;;;;;;;13.45;7.43;;;;;;;12.08;82.21;101982.69;5030047;28;20889;-65
2022/06/16 03:29:28;;;;;;;11.73;7.38;;;;;;;12.14;82.24;101995.72;5039551;28;20028;-65
2022/06/16 03:31:54;;;;;;;11.27;6.57;;;;;;;12.17;81.64;101999.13;5028865;28;20400;-65
2022/06/16 03:34:24;;;;;;;13.52;7.13;;;;;;;12.16;81.48;101993.84;5031159;28;20040;-65
2022/06/16 03:36:51;;;;;;;12.80;7.30;;;;;;;12.31;81.37;102003.75;5048840;28;20759;-65
2022/06/16 03:39:26;;;;;;;8.95;7.05;;;;;;;12.55;80.10;102009.63;5028953;28;20068;-64
2022/06/16 03:41:52;;;;;;;12.98;7.32;;;;;;;12.08;82.33;102017.44;5043199;28;20040;-65
2022/06/16 03:44:17;;;;;;;12.95;6.70;;;;;;;12.19;81.65;102017.75;5045325;28;20044;-65
2022/06/16 03:46:44;;;;;;;12.30;7.30;;;;;;;12.60;80.26;102018.28;5030008;28;20802;-65
2022/06/16 03:49:13;;;;;;;9.90;6.50;;;;;;;12.55;80.50;102011.41;5044771;28;20036;-65
2022/06/16 03:51:43;;;;;;;12.00;7.20;;;;;;;12.52;80.74;102009.78;5026985;28;20044;-65
2022/06/16 03:54:12;;;;;;;14.38;7.13;;;;;;;12.81;79.33;102004.69;5021786;28;20041;-65
2022/06/16 03:56:40;;;;;;;17.58;7.07;;;;;;;12.68;79.65;102001.81;5021231;28;20025;-65
2022/06/16 03:59:08;;;;;;;13.70;8.25;;;;;;;12.66;79.70;102020.63;5049056;28;20415;-65
2022/06/16 04:01:34;;;;;;;11.05;6.50;;;;;;;12.51;80.29;102018.75;5045396;28;20066;-65
2022/06/16 04:03:59;;;;;;;13.52;7.28;;;;;;;12.58;80.34;102022.84;5051933;28;20213;-65
2022/06/16 04:06:25;;;;;;;14.05;7.13;;;;;;;12.66;79.98;102027.78;5054152;28;20040;-65
2022/06/16 04:08:51;;;;;;;12.38;6.93;;;;;;;12.81;79.53;102029.66;5052198;28;20613;-64
2022/06/16 04:11:26;;;;;;;15.30;7.47;;;;;;;12.87;79.45;102032.00;5031581;28;20041;-65
2022/06/16 04:14:07;;;;;;;16.52;7.22;;;;;;;12.89;79.50;102027.41;5040080;28;20033;-65
2022/06/16 04:16:45;;;;;;;11.00;6.68;;;;;;;12.72;80.65;102035.50;5015378;28;20147;-65
2022/06/16 04:19:15;;;;;;;12.18;6.43;;;;;;;12.62;80.89;102044.97;5030935;28;20043;-65
2022/06/16 04:21:43;;;;;;;10.55;6.47;;;;;;;12.60;80.86;102037.03;5036767;28;20052;-65
2022/06/16 04:24:18;;;;;;;10.77;7.15;;;;;;;12.59;81.37;102035.25;5034093;28;20445;-65
2022/06/16 04:26:45;;;;;;;14.98;7.35;;;;;;;12.49;81.49;102046.53;5033176;28;20049;-65
2022/06/16 04:29:12;;;;;;;13.07;7.65;;;;;;;12.55;81.67;102057.81;5030010;28;20839;-65
2022/06/16 04:31:41;;;;;;;10.82;7.15;;;;;;;12.63;80.99;102055.56;5025966;28;20119;-65
2022/06/16 04:34:09;;;;;;;12.93;7.07;;;;;;;12.63;80.85;102050.22;5052025;28;20090;-64
2022/06/16 04:36:37;;;;;;;12.43;7.13;;;;;;;12.77;80.89;102049.50;5051266;28;20074;-65
2022/06/16 04:39:09;;;;;;;16.88;8.10;;;;;;;12.81;80.17;102048.38;5031743;28;20048;-65
2022/06/16 04:41:36;;;;;;;14.05;8.00;;;;;;;12.85;80.28;102046.38;5034436;28;20087;-64
2022/06/16 04:44:06;;;;;;;13.85;7.90;;;;;;;12.97;79.57;102051.09;5030148;28;20166;-65
2022/06/16 04:46:32;;;;;;;12.80;7.35;;;;;;;12.71;80.64;102044.47;5028316;28;20029;-65
2022/06/16 04:48:58;;;;;;;16.98;7.70;;;;;;;12.71;80.62;102052.50;5031473;28;20729;-65
2022/06/16 04:51:23;;;;;;;10.45;6.72;;;;;;;12.38;81.95;102057.78;5022526;28;20106;-65
2022/06/16 04:53:52;;;;;;;11.10;7.10;;;;;;;12.56;81.46;102056.84;5039475;28;20071;-65
2022/06/16 04:56:32;;;;;;;15.15;8.15;;;;;;;12.74;81.15;102057.69;5033306;28;20130;-65
2022/06/16 04:59:36;;;;;;;11.73;7.85;;;;;;;12.95;80.15;102061.00;5011255;28;20053;-65
2022/06/16 05:02:25;;;;;;;13.15;8.02;;;;;;;13.01;80.96;102068.75;4991659;28;20940;-65
2022/06/16 05:04:59;;;;;;;13.00;7.80;;;;;;;13.28;79.85;102066.41;4991460;28;20049;-64
2022/06/16 05:07:54;;;;;;;13.38;7.18;;;;;;;13.30;79.66;102072.53;4990051;28;20924;-65
2022/06/16 05:10:38;;;;;;;12.27;7.45;;;;;;;14.56;75.48;102070.66;4990610;28;20057;-65
2022/06/16 05:13:16;;;;;;;14.80;7.43;;;;;;;17.73;63.94;102063.78;4990044;28;20109;-66
2022/06/16 05:16:00;;;;;;;10.20;6.82;;;;;;;19.05;57.70;102059.91;5004955;28;20096;-65
2022/06/16 05:18:30;;;;;;;12.80;7.10;;;;;;;18.82;58.83;102064.44;5007285;28;20046;-65
2022/06/16 05:21:15;;;;;;;10.00;6.18;;;;;;;18.84;59.43;102063.34;5005148;28;20075;-65
2022/06/16 05:24:00;;;;;;;11.75;6.95;;;;;;;19.07;58.38;102066.03;4990149;28;20559;-66
2022/06/16 05:26:50;;;;;;;12.40;6.32;;;;;;;18.73;60.79;102074.13;4991473;28;20045;-65
2022/06/16 05:29:27;;;;;;;14.10;6.40;;;;;;;17.79;61.91;102085.75;5009618;28;20492;-65
2022/06/16 05:32:03;;;;;;;9.65;6.20;;;;;;;18.04;61.20;102086.63;5022902;28;20826;-64
2022/06/16 05:34:42;;;;;;;11.40;6.63;;;;;;;18.86;59.68;102087.53;5018157;28;20482;-65
2022/06/16 05:37:18;;;;;;;12.23;5.95;;;;;;;18.88;60.19;102091.00;5040967;28;20180;-65
2022/06/16 05:40:15;;;;;;;13.73;5.95;;;;;;;18.60;59.55;102111.16;5029295;28;20570;-65
2022/06/16 05:42:58;;;;;;;9.35;6.07;;;;;;;18.32;61.47;102104.28;5031113;28;20124;-64
2022/06/16 05:45:42;;;;;;;11.13;5.97;;;;;;;19.11;59.60;102102.69;5031454;28;20052;-65
2022/06/16 05:48:27;;;;;;;9.45;5.47;;;;;;;19.15;59.70;102105.03;5028503;28;20372;-65
2022/06/16 05:51:05;;;;;;;;;;;;;;;18.68;60.35;102110.56;5018813;28;20106;-65
2022/06/16 05:53:32;;;;;;;10.20;5.20;;;;;;;19.11;58.81;102113.50;5034230;28;19920;-65
2022/06/16 05:55:58;;;;;;;8.95;6.30;;;;;;;19.08;59.79;102101.09;5051198;28;20535;-64
2022/06/16 05:58:26;;;;;;;13.13;6.38;;;;;;;19.42;58.06;102114.59;5029981;28;20041;-63
2022/06/16 06:00:52;;;;;;;11.13;5.78;;;;;;;19.25;58.26;102109.69;5028450;28;20043;-64
2022/06/16 06:03:22;;;;;;;9.13;5.65;;;;;;;19.38;57.69;102115.88;5037245;28;20375;-65
2022/06/16 06:05:47;;;;;;;7.68;5.20;;;;;;;19.42;59.77;102118.16;5028090;28;20037;-64
2022/06/16 06:16:37;;;;;;;10.82;4.70;;;;;;;19.64;58.59;102121.91;5030845;28;20129;-65
2022/06/16 06:22:01;;;;;;;5.82;4.00;;;;;;;19.97;56.41;102130.94;5030319;28;20068;-65
2022/06/16 06:24:31;;;;;;;9.40;4.50;;;;;;;19.43;56.75;102132.59;5046578;28;20549;-65
2022/06/16 06:26:59;;;;;;;8.00;3.53;;;;;;;19.16;55.72;102135.63;5028681;28;20033;-65
2022/06/16 06:29:25;;;;;;;4.88;3.42;;;;;;;19.00;56.29;102140.53;5010780;28;20140;-64
2022/06/16 06:31:51;;;;;;;5.70;3.45;;;;;;;19.73;55.13;102141.91;5050128;28;20471;-65
2022/06/16 06:34:17;;;;;;;7.50;3.45;;;;;;;19.52;54.77;102141.78;5048519;28;20028;-64
2022/06/16 06:36:43;;;;;;;8.93;4.03;;;;;;;19.53;55.88;102135.38;5051596;28;20872;-65
2022/06/16 06:39:11;;;;;;;7.35;3.25;;;;;;;19.90;54.49;102128.75;5046094;28;20142;-64
2022/06/16 06:41:37;;;;;;;7.85;3.88;;;;;;;20.04;56.05;102130.31;5031829;28;20037;-65
2022/06/16 06:44:02;;;;;;;8.45;3.33;;;;;;;19.92;54.30;102129.47;5030182;28;20844;-64
2022/06/16 06:46:27;;;;;;;5.22;3.30;;;;;;;19.73;53.32;102123.84;5030311;28;20033;-65
2022/06/16 06:48:53;;;;;;;4.68;3.10;;;;;;;19.83;51.67;102124.81;5029968;28;20029;-64
2022/06/16 06:51:18;;;;;;;5.60;2.60;;;;;;;20.15;53.69;102126.72;5030376;28;20041;-65
2022/06/16 06:53:44;;;;;;;3.58;2.60;;;;;;;20.82;52.19;102128.28;5045649;28;20032;-64
2022/06/16 06:56:13;;;;;;;6.18;3.20;;;;;;;20.99;52.59;102129.53;5049753;28;20044;-65
2022/06/16 06:58:38;;;;;;;9.30;2.85;;;;;;;20.15;52.46;102137.53;5036058;28;20546;-65
2022/06/16 07:01:03;;;;;;;6.28;3.05;;;;;;;20.38;51.77;102138.31;5049636;28;20058;-65
2022/06/16 07:03:29;;;;;;;8.95;2.75;;;;;;;20.30;52.88;102138.09;5049634;28;20048;-65
2022/06/16 07:05:55;;;;;;;5.15;2.25;;;;;;;19.82;52.43;102138.47;5044818;28;20045;-65
2022/06/16 07:08:21;;;;;;;5.40;2.40;;;;;;;19.72;50.78;102149.19;5040007;28;20040;-64
2022/06/16 07:10:47;;;;;;;5.97;2.15;;;;;;;19.92;50.72;102151.13;5050479;28;20332;-65
2022/06/16 07:13:12;;;;;;;6.53;2.50;;;;;;;20.06;50.96;102146.44;5050096;28;20040;-64
2022/06/16 07:15:39;;;;;;;3.63;2.20;;;;;;;20.06;49.01;102149.13;5050235;28;20556;-65
2022/06/16 07:18:06;;;;;;;7.43;2.60;;;;;;;20.44;51.95;102154.06;5027317;28;20048;-65
2022/06/16 07:20:32;;;;;;;3.08;1.90;;;;;;;20.35;50.32;102152.13;5044241;28;20075;-65
2022/06/16 07:22:58;;;;;;;7.53;2.10;;;;;;;20.07;49.69;102156.25;5049308;28;20139;-65
2022/06/16 07:25:23;;;;;;;7.13;2.83;;;;;;;20.38;52.44;102162.69;5048704;28;20044;-64
2022/06/16 07:27:48;;;;;;;3.63;1.73;;;;;;;20.11;49.14;102158.59;5049847;28;20051;-65
2022/06/16 07:30:17;;;;;;;2.03;1.55;;;;;;;20.33;49.16;102168.53;5050094;28;20052;-65
2022/06/16 07:32:45;;;;;;;2.65;1.60;;;;;;;20.75;47.09;102155.06;5050369;28;20107;-64
2022/06/16 07:35:14;;;;;;;3.28;1.73;;;;;;;19.84;47.88;102160.88;5048205;28;20200;-65
2022/06/16 07:37:40;;;;;;;7.10;1.98;;;;;;;20.27;51.89;102160.03;5051749;28;20835;-65
2022/06/16 07:40:07;;;;;;;4.55;2.35;;;;;;;20.64;50.69;102166.81;5049183;28;20044;-64
2022/06/16 07:42:33;;;;;;;4.20;1.98;;;;;;;20.73;50.47;102165.16;5048837;28;20090;-64
2022/06/16 07:44:59;;;;;;;9.57;2.85;;;;;;;21.16;46.87;102166.88;5049757;28;20055;-65
2022/06/16 07:47:25;;;;;;;5.43;2.40;;;;;;;20.81;50.62;102170.78;5049509;28;20044;-65
2022/06/16 07:49:51;;;;;;;5.97;1.80;;;;;;;21.27;50.87;102176.81;5049847;28;20547;-65
2022/06/16 07:52:16;;;;;;;4.28;2.25;;;;;;;21.92;50.25;102172.81;5047693;28;20247;-65
2022/06/16 07:54:43;;;;;;;4.05;2.00;;;;;;;21.42;45.14;102173.63;5049531;28;20041;-64
2022/06/16 07:57:09;;;;;;;1.98;1.67;;;;;;;21.45;46.10;102180.66;5049441;28;20115;-65
2022/06/16 07:59:35;;;;;;;3.15;2.08;;;;;;;20.99;45.46;102187.34;5050287;28;20048;-65
2022/06/16 08:02:01;;;;;;;3.60;1.65;;;;;;;21.55;44.57;102178.00;5049257;28;20109;-64
2022/06/16 08:04:26;;;;;;;3.70;2.05;;;;;;;22.14;44.53;102183.50;5048630;28;20036;-66
2022/06/16 08:06:52;;;;;;;3.70;1.80;;;;;;;20.91;46.05;102190.72;5050475;28;20052;-65
2022/06/16 08:09:18;;;;;;;6.07;2.40;;;;;;;21.55;46.26;102178.00;5049008;28;20071;-65
2022/06/16 08:14:28;;;;;;;4.85;2.28;;;;;;;22.17;47.41;102182.34;5046936;28;20038;-66
2022/06/16 08:16:54;;;;;;;2.65;1.80;;;;;;;22.14;43.05;102183.50;5048775;28;20041;-64
2022/06/16 08:19:20;;;;;;;4.45;2.13;;;;;;;22.17;43.11;102180.50;5047321;28;20964;-65
2022/06/16 08:21:45;;;;;;;4.85;1.50;;;;;;;22.41;47.01;102190.97;5033495;28;20029;-65
2022/06/16 08:24:11;;;;;;;6.25;1.52;;;;;;;21.82;45.63;102197.25;5029191;28;20682;-65
2022/06/16 08:26:37;;;;;;;4.50;1.90;;;;;;;22.07;44.70;102201.31;5028303;28;20805;-65
2022/06/16 08:29:06;;;;;;;3.88;1.60;;;;;;;22.76;42.51;102197.72;5030457;28;20036;-65
2022/06/16 08:31:32;;;;;;;7.88;1.75;;;;;;;22.29;44.55;102200.28;5044228;28;20262;-65
2022/06/16 08:33:57;;;;;;;5.95;1.83;;;;;;;22.78;43.06;102194.84;5032901;28;20063;-65
2022/06/16 08:36:23;;;;;;;4.97;2.00;;;;;;;23.17;42.78;102191.09;5031895;28;20029;-64
2022/06/16 08:38:49;;;;;;;6.13;1.88;;;;;;;22.75;42.50;102193.28;5032778;28;20143;-65
2022/06/16 08:41:30;;;;;;;6.50;1.98;;;;;;;22.52;45.14;102186.41;5032592;28;20051;-65
2022/06/16 08:44:11;;;;;;;4.35;1.85;;;;;;;23.10;43.68;102194.56;5032907;28;20087;-65
2022/06/16 08:46:51;;;;;;;1.50;1.33;;;;;;;23.37;41.80;102188.34;5033754;28;20127;-65
2022/06/16 08:49:50;;;;;;;4.22;1.45;;;;;;;22.39;42.26;102192.09;5032967;28;20118;-64
2022/06/16 08:52:40;;;;;;;3.80;1.67;;;;;;;21.90;40.50;102192.00;5035822;28;20052;-65
2022/06/16 08:55:21;;;;;;;3.22;1.73;;;;;;;22.29;44.85;102183.97;5051625;28;20072;-65
2022/06/16 08:58:17;;;;;;;6.15;1.80;;;;;;;22.49;44.16;102180.25;5053157;28;20039;-65
2022/06/16 09:00:48;;;;;;;5.57;2.05;;;;;;;;;;5052466;28;20086;-65
2022/06/16 09:03:47;;;;;;;5.13;1.80;;;;;;;22.70;41.42;102195.59;5052161;28;20109;-65
2022/06/16 09:06:28;;;;;;;6.45;1.88;;;;;;;22.09;47.23;102199.34;5045859;28;20819;-65
2022/06/16 09:12:51;;;;;;;4.60;1.73;;;;;;;22.50;45.47;102211.03;5046242;28;21122;-65
2022/06/16 09:15:37;;;;;;;3.33;2.40;;;;;;;22.95;42.61;102219.50;5050868;28;20040;-65
2022/06/16 09:18:37;;;;;;;2.75;1.98;;;;;;;22.58;41.93;102219.31;5051564;28;20887;-65
2022/06/16 09:21:39;;;;;;;6.38;2.15;;;;;;;23.39;38.56;102216.25;5051225;28;20460;-65
2022/06/16 09:24:26;;;;;;;3.40;1.90;;;;;;;22.36;42.79;102220.44;5051909;28;20139;-65
2022/06/16 09:27:03;;;;;;;3.47;1.70;;;;;;;22.77;48.44;102223.91;5051504;28;20052;-65
2022/06/16 09:29:35;;;;;;;4.75;1.70;;;;;;;23.24;40.49;102213.16;5051752;28;20041;-66
2022/06/16 09:32:25;;;;;;;5.07;1.92;;;;;;;22.97;42.33;102209.31;5051809;28;20068;-66
2022/06/16 09:35:15;;;;;;;7.30;1.88;;;;;;;23.21;39.84;102200.69;5050537;28;20458;-66
2022/06/16 09:37:48;;;;;;;2.92;1.40;;;;;;;22.68;45.09;102201.13;5052729;28;20535;-64
2022/06/16 09:40:20;;;;;;;5.28;1.88;;;;;;;21.98;42.40;102208.44;5051772;28;20162;-65
2022/06/16 09:42:50;;;;;;;;;;;;;;;22.40;39.66;102199.28;5053348;28;20105;-65
2022/06/16 09:45:26;;;;;;;4.90;1.80;;;;;;;23.25;41.50;102210.31;5051199;28;20344;-65
2022/06/16 09:48:13;;;;;;;6.80;1.88;;;;;;;23.17;42.42;102210.16;5052402;28;20046;-66
2022/06/16 09:50:45;;;;;;;5.72;2.10;;;;;;;23.03;41.74;102215.19;5038740;28;20838;-65
2022/06/16 09:53:29;;;;;;;1.90;1.52;;;;;;;22.92;41.48;102227.94;5040445;28;20228;-65
2022/06/16 09:56:02;;;;;;;4.20;1.80;;;;;;;22.75;41.83;102226.78;5038151;28;20032;-65
2022/06/16 09:58:37;;;;;;;4.65;1.67;;;;;;;22.85;40.45;102229.50;5045038;28;20047;-65
2022/06/16 10:01:12;;;;;;;3.30;1.83;;;;;;;23.90;41.38;102229.47;5052093;28;20213;-65
2022/06/16 10:03:49;;;;;;;9.13;2.20;;;;;;;23.14;45.94;102245.81;5052170;28;20236;-64
2022/06/16 10:06:42;;;;;;;3.90;1.90;;;;;;;23.43;42.17;102251.22;5049895;28;20038;-65
2022/06/16 10:09:37;;;;;;;5.28;2.10;;;;;;;23.22;44.85;102262.28;5050207;28;20032;-65
2022/06/16 10:12:18;;;;;;;8.27;2.72;;;;;;;23.51;42.04;102250.50;5050130;28;20052;-65
2022/06/16 10:15:05;;;;;;;2.42;2.10;;;;;;;23.47;42.61;102251.78;5051449;28;20068;-66
2022/06/16 10:17:33;;;;;;;4.45;2.05;;;;;;;23.52;42.92;102250.34;5051277;28;20071;-64
2022/06/16 10:19:59;;;;;;;8.00;2.80;;;;;;;23.39;41.49;102262.53;5040988;28;20134;-65
2022/06/16 10:22:25;;;;;;;3.15;2.38;;;;;;;23.47;42.45;102258.09;5052049;28;20530;-66
2022/06/16 10:25:01;;;;;;;5.90;2.63;;;;;;;22.89;42.69;102257.28;5030112;28;20036;-65
2022/06/16 10:27:43;;;;;;;4.65;2.50;;;;;;;22.41;43.03;102263.53;5051740;28;20551;-65
2022/06/16 10:30:17;;;;;;;8.73;2.60;;;;;;;22.40;43.53;102261.81;5050550;28;20040;-66
2022/06/16 10:32:46;;;;;;;5.35;2.28;;;;;;;23.02;43.21;102274.19;5050921;28;20109;-65
2022/06/16 10:35:18;;;;;;;4.72;2.75;;;;;;;22.77;44.26;102266.56;5049204;28;20166;-65
2022/06/16 10:37:46;;;;;;;4.68;2.53;;;;;;;23.22;45.70;102264.16;5050936;28;20039;-65
2022/06/16 10:40:23;;;;;;;4.45;2.35;;;;;;;23.11;41.49;102265.19;5049658;28;20028;-65
2022/06/16 10:42:57;;;;;;;7.05;2.90;;;;;;;22.60;43.96;102260.84;5051789;28;20797;-65
2022/06/16 10:45:31;;;;;;;2.60;2.03;;;;;;;22.97;42.47;102265.59;5050889;28;20535;-64
2022/06/16 10:48:18;;;;;;;5.15;2.33;;;;;;;23.48;45.60;102259.81;5050272;28;20041;-65
2022/06/16 10:50:49;;;;;;;5.57;2.35;;;;;;;23.56;42.19;102250.06;5035588;28;20068;-65
2022/06/16 10:53:34;;;;;;;3.67;2.13;;;;;;;23.30;44.36;102255.28;5048838;28;20055;-64
2022/06/16 10:56:10;;;;;;;5.88;2.75;;;;;;;23.03;43.68;102259.59;5049833;28;20062;-65
2022/06/16 10:58:46;;;;;;;3.70;2.47;;;;;;;23.64;44.60;102258.38;5050041;28;20841;-65
2022/06/16 11:01:50;;;;;;;5.85;2.78;;;;;;;23.64;43.04;102253.78;5049100;28;20029;-65
2022/06/16 11:04:22;;;;;;;2.25;2.00;;;;;;;24.47;43.21;102256.56;5000644;28;20050;-64
2022/06/16 11:06:53;;;;;;;2.25;1.90;;;;;;;24.31;45.07;102251.75;4992247;28;20034;-64
2022/06/16 11:09:21;;;;;;;8.13;3.33;;;;;;;24.13;43.98;102239.94;4992577;28;20046;-65
2022/06/16 11:11:54;;;;;;;5.40;2.90;;;;;;;23.94;46.97;102246.34;4975427;28;20136;-64
2022/06/16 11:14:24;;;;;;;6.82;2.72;;;;;;;23.34;42.76;102238.47;4984286;28;20562;-65
2022/06/16 11:16:53;;;;;;;3.90;2.40;;;;;;;23.00;43.12;102238.97;4987691;28;20068;-65
2022/06/16 11:19:29;;;;;;;4.80;2.75;;;;;;;23.39;43.12;102247.06;4990738;28;20067;-65
2022/06/16 11:21:55;;;;;;;6.85;2.75;;;;;;;23.44;44.18;102243.91;4997608;28;20100;-64
2022/06/16 11:24:30;;;;;;;3.90;2.50;;;;;;;23.21;43.88;102241.53;4983924;28;20333;-64
2022/06/16 11:27:10;;;;;;;6.47;2.83;;;;;;;23.71;44.38;102238.56;4986416;28;20850;-65
2022/06/16 11:29:36;;;;;;;7.50;2.95;;;;;;;23.98;49.32;102240.44;4987325;28;21031;-65
2022/06/16 11:32:28;;;;;;;4.55;2.55;;;;;;;23.71;42.92;102249.47;4986104;28;20045;-64
2022/06/16 11:34:54;;;;;;;5.13;2.40;;;;;;;23.93;41.11;102247.34;4989624;28;20057;-66
2022/06/16 11:37:43;;;;;;;4.32;2.60;;;;;;;24.35;44.43;102244.13;4991627;28;20052;-65
2022/06/16 11:40:36;;;;;;;6.95;2.42;;;;;;;23.92;46.11;102262.00;5009060;28;20061;-65
2022/06/16 11:43:21;;;;;;;5.43;2.67;;;;;;;23.73;45.00;102262.94;5029223;28;20045;-65
2022/06/16 11:45:53;;;;;;;5.55;2.72;;;;;;;23.50;44.53;102251.50;5030127;28;20122;-65
2022/06/16 11:48:37;;;;;;;5.68;2.75;;;;;;;23.75;46.52;102253.63;5029440;28;20482;-65
2022/06/16 11:51:24;;;;;;;6.80;2.80;;;;;;;24.01;42.20;102255.66;5018310;28;20044;-66
2022/06/16 11:54:14;;;;;;;4.88;2.47;;;;;;;23.78;43.03;102247.84;5049142;28;20036;-65
2022/06/16 11:56:48;;;;;;;4.32;2.90;;;;;;;23.97;46.61;102256.97;5048341;28;20045;-65
2022/06/16 11:59:47;;;;;;;6.80;2.85;;;;;;;24.19;41.05;102242.91;5047741;28;20064;-65
2022/06/16 12:02:40;;;;;;;5.95;2.75;;;;;;;24.51;44.20;102245.19;5047597;28;20898;-65
2022/06/16 12:05:37;;;;;;;3.80;2.70;;;;;;;23.73;47.36;102242.00;5048884;28;20055;-65
2022/06/16 12:08:08;;;;;;;8.20;2.72;;;;;;;23.78;42.46;102244.28;5041241;28;20044;-65
2022/06/16 12:10:45;;;;;;;6.72;2.95;;;;;;;24.04;42.71;102236.25;5053197;28;20457;-65
2022/06/16 12:13:37;;;;;;;6.50;3.33;;;;;;;24.27;45.47;102247.63;5052448;28;20040;-65
2022/06/16 12:16:13;;;;;;;4.72;3.35;;;;;;;24.42;44.13;102246.13;5051365;28;20071;-65
2022/06/16 12:19:13;;;;;;;9.10;3.45;;;;;;;24.06;42.75;102241.56;5051627;28;20124;-66
2022/06/16 12:21:53;;;;;;;7.72;2.95;;;;;;;24.18;44.24;102237.63;4977767;28;21223;-65